Time;durP1;ratioP1;P1;durP2;ratioP2;P2;SDS_P1;SDS_P2;PMS_P1;PMS_P2;Temp;Humidity;BMP_temperature;BMP_pressure;BME280_temperature;BME280_humidity;BME280_pressure;Samples;Min_cycle;Max_cycle;Signal;HPM_P1;HPM_P2
2022/03/21 00:01:24;;;;;;;;;71.75;55.50;;;;;-4.14;100.00;103432.56;3722434;37;18316;-54
2022/03/21 00:03:52;;;;;;;;;74.75;57.00;;;;;-4.18;100.00;103428.25;3722511;38;18043;-55
2022/03/21 00:06:20;;;;;;;;;76.75;61.00;;;;;-4.17;100.00;103428.22;3722397;38;18153;-55
2022/03/21 00:08:47;;;;;;;;;66.00;50.75;;;;;-4.15;100.00;103429.03;3722481;38;18028;-55
2022/03/21 00:11:15;;;;;;;;;76.00;59.50;;;;;-4.24;100.00;103431.84;3722445;37;18080;-54
2022/03/21 00:13:43;;;;;;;;;69.00;55.00;;;;;-4.35;100.00;103431.97;3721588;37;18012;-54
2022/03/21 00:16:12;;;;;;;;;78.50;61.00;;;;;-4.37;100.00;103425.81;3722531;38;18012;-56
2022/03/21 00:18:40;;;;;;;;;78.00;62.00;;;;;-4.44;100.00;103424.13;3721495;37;17995;-54
2022/03/21 00:21:07;;;;;;;;;72.25;59.75;;;;;-4.51;100.00;103435.66;3721528;38;18004;-54
2022/03/21 00:23:35;;;;;;;;;71.75;58.75;;;;;-4.58;100.00;103438.38;3722585;38;20957;-54
2022/03/21 00:26:03;;;;;;;;;68.25;56.50;;;;;-4.60;100.00;103432.22;3721594;37;18086;-54
2022/03/21 00:28:30;;;;;;;;;68.75;53.25;;;;;-4.59;100.00;103436.63;3722516;37;18014;-54
2022/03/21 00:30:59;;;;;;;;;69.00;54.25;;;;;-4.63;100.00;103427.84;3722523;37;17980;-51
2022/03/21 00:33:27;;;;;;;;;76.50;57.00;;;;;-4.73;100.00;103431.50;3721722;38;18003;-51
2022/03/21 00:35:54;;;;;;;;;72.00;55.50;;;;;-4.74;100.00;103424.47;3721802;37;18054;-57
2022/03/21 00:38:22;;;;;;;;;69.25;55.25;;;;;-4.75;100.00;103428.00;3722208;38;18247;-56
2022/03/21 00:40:50;;;;;;;;;71.25;56.25;;;;;-4.84;100.00;103428.97;3722441;37;18055;-52
2022/03/21 00:43:22;;;;;;;;;68.00;54.00;;;;;-4.79;100.00;103423.66;3722453;37;17965;-55
2022/03/21 00:45:53;;;;;;;;;69.00;55.25;;;;;-4.76;100.00;103420.97;3721608;37;18028;-61
2022/03/21 00:48:25;;;;;;;;;72.00;56.25;;;;;-4.79;100.00;103416.59;3722291;37;17955;-60
2022/03/21 00:50:54;;;;;;;;;72.75;55.50;;;;;-4.80;100.00;103420.13;3721507;38;17963;-55
2022/03/21 00:53:22;;;;;;;;;65.50;54.75;;;;;-4.77;100.00;103417.47;3721573;37;18235;-56
2022/03/21 00:55:50;;;;;;;;;70.25;56.50;;;;;-4.91;100.00;103421.12;3722279;37;18109;-54
2022/03/21 00:58:17;;;;;;;;;71.00;55.75;;;;;-5.02;100.00;103415.94;3722604;37;17956;-52
2022/03/21 01:00:45;;;;;;;;;75.25;57.50;;;;;-4.99;100.00;103410.63;3722321;38;18081;-51
2022/03/21 01:03:13;;;;;;;;;72.00;54.50;;;;;-4.92;100.00;103408.81;3722691;37;17950;-52
2022/03/21 01:05:41;;;;;;;;;66.50;55.25;;;;;-5.01;100.00;103410.63;3722619;37;17942;-51
2022/03/21 01:08:08;;;;;;;;;70.75;54.75;;;;;-5.04;100.00;103412.44;3722350;37;17923;-54
2022/03/21 01:10:36;;;;;;;;;69.75;55.25;;;;;-5.10;100.00;103415.12;3722564;37;17922;-53
2022/03/21 01:13:03;;;;;;;;;71.00;54.25;;;;;-5.07;100.00;103413.34;3722335;38;18183;-53
2022/03/21 01:15:31;;;;;;;;;69.75;54.25;;;;;-5.14;100.00;103409.00;3722514;38;17947;-53
2022/03/21 01:17:59;;;;;;;;;71.00;56.25;;;;;-5.24;100.00;103415.28;3722566;37;17935;-54
2022/03/21 01:20:27;;;;;;;;;71.25;55.75;;;;;-5.23;100.00;103400.31;3722497;38;17922;-53
2022/03/21 01:22:56;;;;;;;;;69.00;55.00;;;;;-5.11;100.00;103422.16;3721817;38;17924;-53
2022/03/21 01:25:23;;;;;;;;;67.50;54.75;;;;;-5.12;100.00;103411.62;3721770;37;17943;-50
2022/03/21 01:27:51;;;;;;;;;67.25;52.25;;;;;-5.22;100.00;103409.97;3722516;37;18176;-54
2022/03/21 01:30:18;;;;;;;;;72.00;59.25;;;;;-5.27;100.00;103406.50;3722751;37;17930;-54
2022/03/21 01:32:46;;;;;;;;;71.25;57.00;;;;;-5.32;100.00;103409.16;3723206;38;17879;-53
2022/03/21 01:35:16;;;;;;;;;70.75;54.50;;;;;-5.41;100.00;103409.25;3723313;38;17904;-52
2022/03/21 01:37:45;;;;;;;;;72.50;55.00;;;;;-5.42;100.00;103411.00;3723358;37;18144;-54
2022/03/21 01:40:15;;;;;;;;;72.25;55.50;;;;;-5.37;100.00;103406.56;3723097;38;17895;-54
2022/03/21 01:42:46;;;;;;;;;68.25;53.00;;;;;-5.39;100.00;103410.09;3722262;38;18184;-53
2022/03/21 01:45:15;;;;;;;;;68.25;53.75;;;;;-5.38;100.00;103409.22;3722128;37;17894;-52
2022/03/21 01:47:42;;;;;;;;;65.25;50.50;;;;;-5.37;100.00;103406.56;3721827;37;17938;-52
2022/03/21 01:50:11;;;;;;;;;69.50;56.00;;;;;-5.31;100.00;103413.56;3721713;37;18223;-52
2022/03/21 01:52:41;;;;;;;;;59.00;47.75;;;;;-5.31;100.00;103407.41;3722583;38;17865;-53
2022/03/21 01:57:57;;;;;;;;;72.50;55.25;;;;;-5.45;100.00;103408.38;3717950;38;18264;-54
2022/03/21 02:00:24;;;;;;;;;72.00;55.25;;;;;-5.46;100.00;103405.75;3722404;37;17867;-52
2022/03/21 02:02:52;;;;;;;;;66.75;53.75;;;;;-5.44;100.00;103406.63;3722177;38;17860;-51
2022/03/21 02:05:21;;;;;;;;;67.25;52.25;;;;;-5.35;100.00;103415.34;3721712;37;17862;-53
2022/03/21 02:07:49;;;;;;;;;74.75;56.75;;;;;-5.40;100.00;103417.16;3722655;38;17874;-53
2022/03/21 02:10:16;;;;;;;;;70.75;56.00;;;;;-5.48;100.00;103413.69;3722542;37;17869;-52
2022/03/21 02:12:44;;;;;;;;;67.75;54.75;;;;;-5.53;100.00;103415.47;3723261;38;17865;-52
2022/03/21 02:15:12;;;;;;;;;79.75;61.00;;;;;-5.45;100.00;103408.38;3723173;37;18100;-52
2022/03/21 02:17:43;;;;;;;;;69.75;56.00;;;;;-5.35;100.00;103422.41;3722498;37;17855;-54
2022/03/21 02:20:12;;;;;;;;;70.75;56.25;;;;;-5.51;100.00;103421.62;3723083;37;17855;-52
2022/03/21 02:23:11;;;;;;;;;71.50;56.50;;;;;-5.67;100.00;103406.78;3722917;37;18048;-51
2022/03/21 02:25:43;;;;;;;;;75.75;59.75;;;;;-5.67;100.00;103409.41;3722629;38;17892;-51
2022/03/21 02:28:13;;;;;;;;;77.25;59.25;;;;;-5.64;100.00;103409.41;3719182;37;17856;-53
2022/03/21 02:30:46;;;;;;;;;69.25;55.00;;;;;-5.65;100.00;103415.56;3721670;38;17840;-52
2022/03/21 02:33:16;;;;;;;;;75.75;60.75;;;;;-5.67;100.00;103412.06;3722490;38;17824;-52
2022/03/21 02:35:49;;;;;;;;;82.25;63.00;;;;;-5.70;100.00;103417.34;3722367;38;17827;-54
2022/03/21 02:38:18;;;;;;;;;66.00;51.75;;;;;-5.83;100.00;103415.69;3722371;38;18089;-52
2022/03/21 02:40:46;;;;;;;;;72.00;56.00;;;;;-5.92;100.00;103413.16;3722483;37;17829;-51
2022/03/21 02:43:13;;;;;;;;;72.75;58.00;;;;;-5.93;100.00;103417.53;3722460;38;17847;-51
2022/03/21 02:45:41;;;;;;;;;66.50;50.50;;;;;-5.94;100.00;103418.44;3722314;38;17874;-51
2022/03/21 02:48:11;;;;;;;;;69.00;55.75;;;;;-5.95;100.00;103419.31;3722588;37;17838;-54
2022/03/21 02:50:52;;;;;;;;;66.50;53.25;;;;;-5.93;100.00;103420.19;3721481;38;17885;-54
2022/03/21 02:53:22;;;;;;;;;73.25;54.75;;;;;-5.97;100.00;103415.81;3722295;38;17815;-53
2022/03/21 02:55:54;;;;;;;;;64.00;54.00;;;;;-6.01;100.00;103417.56;3721611;38;17774;-54
2022/03/21 02:58:22;;;;;;;;;72.25;58.25;;;;;-5.94;100.00;103428.09;3722525;37;17930;-53
2022/03/21 03:00:50;;;;;;;;;61.25;49.75;;;;;-6.10;100.00;103435.19;3721316;37;17781;-49
2022/03/21 03:03:17;;;;;;;;;70.25;52.00;;;;;-6.18;100.00;103431.72;3721265;38;20889;-53
2022/03/21 03:05:44;;;;;;;;;65.00;52.25;;;;;-6.25;100.00;103427.38;3717559;37;17782;-50
2022/03/21 03:08:12;;;;;;;;;59.00;49.00;;;;;-6.28;100.00;103430.03;3722203;37;18005;-52
2022/03/21 03:10:40;;;;;;;;;70.50;53.75;;;;;-6.29;100.00;103421.25;3722277;37;17786;-51
2022/03/21 03:13:09;;;;;;;;;70.75;57.25;;;;;-6.33;100.00;103427.41;3722322;37;17803;-51
2022/03/21 03:15:36;;;;;;;;;64.75;53.25;;;;;-6.29;100.00;103421.25;3722507;38;17924;-50
2022/03/21 03:18:03;;;;;;;;;65.50;52.25;;;;;-6.25;100.00;103417.72;3722037;37;17798;-52
2022/03/21 03:20:31;;;;;;;;;65.75;52.00;;;;;-6.24;100.00;103424.75;3722218;38;17768;-51
2022/03/21 03:23:02;;;;;;;;;68.00;55.25;;;;;-6.33;100.00;103410.72;3722304;37;17774;-52
2022/03/21 03:25:29;;;;;;;;;67.50;54.75;;;;;-6.33;100.00;103421.25;3722489;38;17815;-55
2022/03/21 03:27:57;;;;;;;;;68.25;53.25;;;;;-6.37;100.00;103425.66;3721623;38;17750;-55
2022/03/21 03:30:25;;;;;;;;;71.25;59.00;;;;;-6.36;100.00;103419.50;3721737;38;17958;-52
2022/03/21 03:32:52;;;;;;;;;69.75;52.75;;;;;-6.39;100.00;103424.78;3722311;38;17759;-51
2022/03/21 03:35:20;;;;;;;;;68.25;53.75;;;;;-6.45;100.00;103432.72;3721640;38;17745;-53
2022/03/21 03:37:47;;;;;;;;;67.50;55.75;;;;;-6.60;100.00;103420.44;3722389;38;17741;-53
2022/03/21 03:40:15;;;;;;;;;68.00;52.50;;;;;-6.55;100.00;103429.22;3722317;38;17737;-53
2022/03/21 03:42:42;;;;;;;;;64.75;53.25;;;;;-6.55;100.00;103429.22;3721483;37;17802;-54
2022/03/21 03:45:10;;;;;;;;;74.00;54.00;;;;;-6.55;100.00;103423.97;3721611;37;17761;-53
2022/03/21 03:47:37;;;;;;;;;69.00;49.25;;;;;-6.51;100.00;103430.97;3722304;38;17745;-55
2022/03/21 03:50:05;;;;;;;;;65.50;53.00;;;;;-6.56;100.00;103432.72;3721823;38;17754;-54
2022/03/21 03:52:32;;;;;;;;;70.75;56.00;;;;;-6.58;100.00;103428.34;3722356;37;17796;-55
2022/03/21 03:55:00;;;;;;;;;67.25;54.25;;;;;-6.54;100.00;103423.06;3722452;38;17731;-50
2022/03/21 03:57:27;;;;;;;;;63.50;50.00;;;;;-6.46;100.00;103426.56;3722460;37;17731;-50
2022/03/21 03:59:55;;;;;;;;;73.00;58.00;;;;;-6.46;100.00;103429.19;3722047;38;17720;-51
2022/03/21 04:02:22;;;;;;;;;68.00;55.00;;;;;-6.50;100.00;103430.09;3722379;37;17698;-56
2022/03/21 04:04:49;;;;;;;;;62.50;50.75;;;;;-6.60;100.00;103424.84;3722302;37;17736;-53
2022/03/21 04:07:19;;;;;;;;;73.50;54.75;;;;;-6.65;100.00;103427.50;3722360;38;17700;-51
2022/03/21 04:09:46;;;;;;;;;74.75;60.00;;;;;-6.68;100.00;103425.75;3722489;37;17769;-52
2022/03/21 04:12:14;;;;;;;;;70.50;55.00;;;;;-6.70;100.00;103416.09;3722221;38;17710;-52
2022/03/21 04:14:43;;;;;;;;;77.75;61.00;;;;;-6.70;100.00;103419.59;3722247;37;17782;-51
2022/03/21 04:17:10;;;;;;;;;73.25;59.25;;;;;-6.69;100.00;103423.09;3721430;37;17707;-50
2022/03/21 04:19:38;;;;;;;;;72.25;56.50;;;;;-6.73;100.00;103418.72;3722326;37;17683;-53
2022/03/21 04:22:05;;;;;;;;;77.75;61.25;;;;;-6.65;100.00;103424.84;3722438;38;17707;-53
2022/03/21 04:24:33;;;;;;;;;79.25;62.25;;;;;-6.72;100.00;103417.84;3722287;38;17697;-54
2022/03/21 04:27:01;;;;;;;;;79.50;61.75;;;;;-6.81;100.00;103416.13;3721548;37;17770;-53
2022/03/21 04:29:29;;;;;;;;;79.25;61.00;;;;;-6.69;100.00;103423.97;3722410;38;17695;-51
2022/03/21 04:31:57;;;;;;;;;78.00;62.00;;;;;-6.73;100.00;103413.47;3722065;38;17661;-51
2022/03/21 04:34:25;;;;;;;;;85.25;66.50;;;;;-6.61;100.00;103416.06;3722529;37;17684;-49
2022/03/21 04:36:53;;;;;;;;;79.50;61.25;;;;;-6.59;100.00;103418.69;3722171;37;17667;-51
2022/03/21 04:39:20;;;;;;;;;86.00;64.50;;;;;-6.50;100.00;103421.31;3722359;38;17801;-51
2022/03/21 04:41:48;;;;;;;;;85.00;64.00;;;;;-6.47;100.00;103424.81;3722608;37;17843;-57
2022/03/21 04:44:15;;;;;;;;;77.50;60.50;;;;;-6.44;100.00;103413.37;3721473;37;17664;-56
2022/03/21 04:46:42;;;;;;;;;76.50;61.00;;;;;-6.48;100.00;103414.28;3721547;37;17678;-58
2022/03/21 04:49:09;;;;;;;;;83.75;63.25;;;;;-6.35;100.00;103413.34;3721878;37;17640;-57
2022/03/21 04:51:38;;;;;;;;;79.25;64.00;;;;;-6.41;100.00;103406.34;3722472;38;17810;-57
2022/03/21 04:54:07;;;;;;;;;82.25;63.75;;;;;-6.33;100.00;103418.63;3722642;38;17663;-56
2022/03/21 04:56:35;;;;;;;;;85.50;64.75;;;;;-6.25;100.00;103415.06;3722586;37;17661;-56
2022/03/21 04:59:02;;;;;;;;;94.00;70.00;;;;;-6.11;100.00;103404.44;3721455;38;18817;-56
2022/03/21 05:01:30;;;;;;;;;89.25;71.25;;;;;-5.95;100.00;103421.06;3722313;38;17875;-55
2022/03/21 05:03:58;;;;;;;;;91.75;67.00;;;;;-5.88;100.00;103410.44;3721496;37;17631;-53
2022/03/21 05:06:26;;;;;;;;;89.00;67.50;;;;;-5.70;100.00;103422.63;3722210;37;17638;-52
2022/03/21 05:08:54;;;;;;;;;86.75;65.00;;;;;-5.58;100.00;103425.19;3721632;38;17866;-55
2022/03/21 05:11:21;;;;;;;;;82.50;63.00;;;;;-5.49;100.00;103414.56;3721435;38;18622;-51
2022/03/21 05:13:50;;;;;;;;;83.00;64.00;;;;;-5.43;100.00;103421.56;3722437;37;18631;-51
2022/03/21 05:16:18;;;;;;;;;80.25;61.75;;;;;-5.31;100.00;103418.84;3722236;37;17640;-49
2022/03/21 05:18:46;;;;;;;;;89.00;66.50;;;;;-5.14;100.00;103418.69;3722305;37;18622;-52
2022/03/21 05:21:13;;;;;;;;;87.75;65.00;;;;;-5.15;100.00;103399.31;3722419;37;18609;-51
2022/03/21 05:31:59;;;;;;;;;95.50;79.75;;;;;-4.39;100.00;103426.72;3722384;38;18578;-50
2022/03/21 05:37:13;;;;;;;;;99.00;87.75;;;;;-4.14;100.00;103414.94;3722291;38;18696;-51
2022/03/21 05:40:31;;;;;;;;;88.50;68.50;;;;;-3.84;100.00;103439.25;3721490;38;18590;-50
2022/03/21 05:42:28;;;;;;;;;95.75;78.25;;;;;-3.56;100.00;103429.13;3722297;37;18564;-49
2022/03/21 05:44:55;;;;;;;;;103.50;92.00;;;;;-3.30;100.00;103426.94;3722122;37;18801;-49
2022/03/21 05:47:23;;;;;;;;;131.50;113.25;;;;;-3.00;100.00;103428.19;3722315;38;18569;-51
2022/03/21 05:49:51;;;;;;;;;110.75;100.75;;;;;-2.70;100.00;103437.41;3722256;37;18578;-52
2022/03/21 05:52:18;;;;;;;;;84.00;66.25;;;;;-2.45;100.00;103436.00;3722328;38;18791;-52
2022/03/21 05:54:45;;;;;;;;;72.25;54.25;;;;;-2.24;100.00;103429.41;3721586;38;18584;-52
2022/03/21 05:57:13;;;;;;;;;72.00;56.75;;;;;-2.01;100.00;103428.91;3722030;37;21704;-52
2022/03/21 06:02:26;;;;;;;;;55.50;45.25;;;;;-1.75;100.00;103423.91;3722384;38;18565;-52
2022/03/21 06:04:53;;;;;;;;;65.25;52.25;;;;;-1.59;100.00;103431.53;3722172;38;21597;-55
2022/03/21 06:07:21;;;;;;;;;60.25;50.25;;;;;-1.54;100.00;103426.97;3722031;38;21808;-56
2022/03/21 06:09:49;;;;;;;;;59.75;49.75;;;;;-1.47;100.00;103429.44;3722176;38;21622;-55
2022/03/21 06:12:17;;;;;;;;;57.25;46.50;;;;;-1.33;100.00;103429.13;3721302;37;21712;-52
2022/03/21 06:14:44;;;;;;;;;60.25;49.00;;;;;-1.15;100.00;103438.44;3721453;38;21758;-54
2022/03/21 06:17:11;;;;;;;;;60.25;49.25;;;;;-1.07;100.00;103436.47;3722301;37;21674;-52
2022/03/21 06:19:38;;;;;;;;;60.50;49.75;;;;;-0.99;100.00;103439.78;3723171;38;21749;-55
2022/03/21 06:22:06;;;;;;;;;55.00;45.00;;;;;-0.87;100.00;103435.94;3722325;38;21677;-53
2022/03/21 06:24:33;;;;;;;;;52.75;45.75;;;;;-0.69;100.00;103439.00;3722103;38;21643;-57
2022/03/21 06:27:01;;;;;;;;;64.00;49.50;;;;;-0.50;100.00;103438.47;3721343;38;21700;-55
2022/03/21 06:29:28;;;;;;;;;55.75;47.50;;;;;-0.47;99.07;103443.72;3721418;38;21597;-53
2022/03/21 06:31:55;;;;;;;;;59.50;48.75;;;;;-0.43;98.83;103432.94;3722094;37;21593;-55
2022/03/21 06:34:23;;;;;;;;;48.50;39.25;;;;;-0.41;97.46;103438.22;3722138;37;21545;-55
2022/03/21 06:36:50;;;;;;;;;58.50;47.50;;;;;-0.24;98.32;103438.62;3721945;37;21728;-54
2022/03/21 06:39:18;;;;;;;;;56.00;48.25;;;;;-0.04;99.06;103427.41;3722053;37;21454;-56
2022/03/21 06:41:46;;;;;;;;;60.00;49.00;;;;;0.18;98.11;103424.97;3722200;37;21590;-55
2022/03/21 06:44:15;;;;;;;;;61.75;50.00;;;;;0.35;97.55;103422.66;3721137;38;21572;-52
2022/03/21 06:46:43;;;;;;;;;62.25;48.00;;;;;0.43;100.00;103425.09;3721883;37;21802;-51
2022/03/21 06:49:11;;;;;;;;;58.75;48.25;;;;;0.42;99.38;103423.34;3722148;37;21638;-53
2022/03/21 06:51:39;;;;;;;;;60.50;49.50;;;;;0.54;100.00;103417.59;3721250;37;21534;-52
2022/03/21 06:54:07;;;;;;;;;64.75;51.75;;;;;0.72;98.01;103416.13;3721896;37;21595;-50
2022/03/21 06:56:35;;;;;;;;;52.50;45.50;;;;;0.82;97.00;103423.78;3722210;38;21539;-46
2022/03/21 06:59:03;;;;;;;;;60.00;47.25;;;;;0.83;98.86;103412.19;3721726;37;21530;-48
2022/03/21 07:01:33;;;;;;;;;56.75;48.50;;;;;0.92;97.51;103414.56;3722348;38;21539;-48
2022/03/21 07:04:01;;;;;;;;;65.25;50.75;;;;;1.17;97.72;103413.69;3722217;37;21544;-46
2022/03/21 07:06:28;;;;;;;;;56.25;48.75;;;;;1.43;97.00;103394.12;3722158;38;21637;-45
2022/03/21 07:08:55;;;;;;;;;59.50;47.25;;;;;1.74;96.15;103401.84;3722012;38;21312;-47
2022/03/21 07:11:22;;;;;;;;;60.25;48.00;;;;;1.73;91.61;103405.44;3722221;37;21625;-46
2022/03/21 07:13:50;;;;;;;;;53.25;46.75;;;;;1.88;91.28;103403.09;3721718;38;21348;-47
2022/03/21 07:16:17;;;;;;;;;59.75;47.50;;;;;2.07;90.34;103405.06;3722058;37;21680;-47
2022/03/21 07:18:44;;;;;;;;;52.25;44.25;;;;;2.23;88.95;103391.03;3722132;38;21512;-46
2022/03/21 07:21:13;;;;;;;;;62.50;52.00;;;;;2.43;87.51;103376.00;3722335;37;21509;-45
2022/03/21 07:23:41;;;;;;;;;60.75;49.00;;;;;2.61;86.08;103380.56;3722214;38;21549;-47
2022/03/21 07:26:07;;;;;;;;;61.75;48.25;;;;;2.76;84.70;103377.25;3721746;37;21560;-45
2022/03/21 07:28:35;;;;;;;;;60.00;48.50;;;;;2.92;83.75;103377.50;3722184;37;21584;-45
2022/03/21 07:31:02;;;;;;;;;59.00;43.75;;;;;2.92;81.70;103380.16;3722055;38;21562;-45
2022/03/21 07:33:30;;;;;;;;;53.25;44.00;;;;;3.02;81.79;103381.53;3722179;37;21592;-45
2022/03/21 07:35:57;;;;;;;;;61.25;49.00;;;;;3.02;79.78;103376.19;3721805;37;21562;-46
2022/03/21 07:38:25;;;;;;;;;46.75;40.25;;;;;2.93;78.78;103372.09;3721244;37;21687;-44
2022/03/21 07:40:52;;;;;;;;;49.00;41.00;;;;;2.96;77.11;103377.31;3721382;37;21441;-43
2022/03/21 07:43:20;;;;;;;;;56.50;46.00;;;;;3.37;82.31;103371.06;3720891;38;21527;-45
2022/03/21 07:48:32;;;;;;;;;59.00;44.75;;;;;3.52;72.49;103381.09;3722141;38;21548;-45
2022/03/21 07:51:00;;;;;;;;;45.50;39.50;;;;;3.73;65.36;103364.03;3722089;37;21547;-45
2022/03/21 07:53:27;;;;;;;;;58.25;46.75;;;;;3.94;65.11;103372.88;3722045;38;21566;-45
2022/03/21 07:55:54;;;;;;;;;47.00;41.25;;;;;4.09;62.94;103365.94;3721468;38;21618;-44
2022/03/21 07:58:22;;;;;;;;;50.50;42.50;;;;;4.24;62.04;103360.69;3721451;38;21554;-43
2022/03/21 08:00:50;;;;;;;;;50.50;40.00;;;;;4.30;60.12;103368.44;3722362;37;21614;-42
2022/03/21 08:03:17;;;;;;;;;49.25;40.25;;;;;4.50;59.11;103355.87;3722395;38;21395;-45
2022/03/21 08:05:47;;;;;;;;;51.50;43.25;;;;;4.81;58.41;103363.22;3721946;37;21577;-44
2022/03/21 08:08:16;;;;;;;;;49.25;40.50;;;;;4.73;56.05;103358.25;3721689;37;21569;-45
2022/03/21 08:10:43;;;;;;;;;50.25;41.75;;;;;4.80;56.42;103361.50;3722432;38;21507;-46
2022/03/21 08:13:19;;;;;;;;;53.50;44.00;;;;;4.99;57.58;103359.63;3722364;37;21588;-45
2022/03/21 08:15:50;;;;;;;;;54.75;44.75;;;;;5.20;54.97;103344.22;3721659;37;21423;-45
2022/03/21 08:18:17;;;;;;;;;55.25;45.25;;;;;5.36;54.08;103344.25;3721645;37;21314;-46
2022/03/21 08:20:45;;;;;;;;;51.50;43.00;;;;;5.57;53.57;103332.34;3721307;37;21441;-47
2022/03/21 08:23:14;;;;;;;;;53.75;44.00;;;;;5.78;52.05;103327.59;3722297;37;21516;-47
2022/03/21 08:25:45;;;;;;;;;51.25;42.00;;;;;5.93;50.93;103334.84;3722406;38;21512;-45
2022/03/21 08:28:15;;;;;;;;;42.25;38.25;;;;;5.98;49.76;103336.34;3722256;37;21491;-44
2022/03/21 08:30:43;;;;;;;;;53.25;44.50;;;;;6.11;49.16;103341.91;3722280;38;21499;-45
2022/03/21 08:33:11;;;;;;;;;53.75;44.00;;;;;6.28;48.12;103324.78;3722196;37;20992;-44
2022/03/21 08:35:40;;;;;;;;;43.50;39.00;;;;;6.38;46.28;103342.13;3721483;38;21590;-45
2022/03/21 08:38:09;;;;;;;;;51.50;43.00;;;;;6.27;45.71;103320.34;3721641;38;21474;-45
2022/03/21 08:40:37;;;;;;;;;47.25;40.75;;;;;6.37;45.99;103321.56;3721730;37;21426;-45
2022/03/21 08:43:06;;;;;;;;;48.75;41.75;;;;;6.50;45.93;103329.78;3722213;38;21479;-47
2022/03/21 08:45:34;;;;;;;;;53.50;44.00;;;;;6.44;45.78;103316.69;3721480;37;21583;-46
2022/03/21 08:48:02;;;;;;;;;53.50;44.00;;;;;6.60;46.25;103310.31;3722370;37;21424;-46
2022/03/21 08:50:30;;;;;;;;;52.00;43.25;;;;;6.52;45.65;103306.34;3721591;37;21437;-45
2022/03/21 08:52:58;;;;;;;;;48.75;42.25;;;;;6.44;46.07;103297.84;3722496;37;21471;-46
2022/03/21 08:55:26;;;;;;;;;53.25;43.50;;;;;6.65;46.06;103293.91;3722320;38;21433;-44
2022/03/21 08:57:53;;;;;;;;;51.75;41.75;;;;;6.72;46.31;103287.22;3722083;37;21376;-46
2022/03/21 09:00:24;;;;;;;;;48.00;39.00;;;;;6.86;45.83;103289.91;3722334;38;21324;-44
2022/03/21 09:02:54;;;;;;;;;54.75;44.75;;;;;7.01;45.15;103280.03;3722258;38;21386;-47
2022/03/21 09:05:22;;;;;;;;;44.50;39.50;;;;;7.11;44.22;103294.66;3722383;38;21463;-46
2022/03/21 09:07:50;;;;;;;;;58.25;47.50;;;;;7.11;44.37;103280.34;3722246;38;21451;-47
2022/03/21 09:10:18;;;;;;;;;53.50;44.25;;;;;7.22;43.96;103264.38;3721293;38;21456;-47
2022/03/21 09:12:45;;;;;;;;;48.25;39.50;;;;;7.43;43.87;103256.75;3722275;37;21415;-48
2022/03/21 09:15:13;;;;;;;;;55.25;46.25;;;;;7.52;44.08;103254.34;3722254;37;21527;-47
2022/03/21 09:17:41;;;;;;;;;67.00;51.75;;;;;7.78;42.53;103254.50;3721976;37;21398;-46
2022/03/21 09:20:09;;;;;;;;;52.50;43.75;;;;;8.03;41.48;103261.84;3722312;37;21360;-46
2022/03/21 09:22:37;;;;;;;;;50.75;41.25;;;;;8.09;41.01;103247.94;3722249;38;21409;-45
2022/03/21 09:25:05;;;;;;;;;50.25;41.75;;;;;8.21;40.54;103239.91;3722348;37;21334;-46
2022/03/21 09:27:32;;;;;;;;;53.00;44.75;;;;;8.18;39.92;103242.81;3722388;37;21430;-46
2022/03/21 09:30:00;;;;;;;;;49.75;41.75;;;;;8.43;40.21;103238.47;3721496;38;21470;-47
2022/03/21 09:32:27;;;;;;;;;51.75;42.00;;;;;8.73;38.71;103239.09;3722532;37;21473;-45
2022/03/21 09:34:54;;;;;;;;;46.75;40.25;;;;;8.84;39.26;103231.06;3722214;37;21408;-45
2022/03/21 09:37:22;;;;;;;;;50.50;42.50;;;;;8.66;39.14;103226.09;3722208;37;21602;-45
2022/03/21 09:39:50;;;;;;;;;48.50;39.75;;;;;8.92;39.47;103219.72;3722500;37;21611;-45
2022/03/21 09:42:18;;;;;;;;;53.50;44.75;;;;;9.18;39.01;103209.78;3721267;37;21313;-45
2022/03/21 09:44:52;;;;;;;;;58.75;46.75;;;;;9.37;38.66;103222.81;3722377;38;21526;-44
2022/03/21 09:50:13;;;;;;;;;56.25;44.75;;;;;9.30;38.07;103200.81;3722176;37;21321;-47
2022/03/21 09:52:40;;;;;;;;;41.75;36.25;;;;;9.62;35.80;103201.12;3721525;38;21340;-47
2022/03/21 09:55:09;;;;;;;;;39.00;34.25;;;;;9.79;33.66;103194.50;3721805;38;21276;-47
2022/03/21 09:57:37;;;;;;;;;32.50;30.50;;;;;10.13;32.15;103203.63;3722407;38;21278;-46
2022/03/21 10:00:06;;;;;;;;;32.50;30.25;;;;;10.14;31.62;103208.91;3721722;38;21183;-46
2022/03/21 10:02:42;;;;;;;;;31.75;29.25;;;;;10.14;31.65;103217.03;3722469;38;21273;-45
2022/03/21 10:05:42;;;;;;;;;28.50;28.25;;;;;10.11;30.68;103198.31;3722390;37;21265;-45
2022/03/21 10:08:30;;;;;;;;;27.75;26.75;;;;;10.24;30.49;103199.16;3722627;37;21405;-46
2022/03/21 10:11:02;;;;;;;;;30.00;27.25;;;;;10.42;29.85;103175.19;3722414;37;21169;-48
2022/03/21 10:13:32;;;;;;;;;33.75;31.50;;;;;10.51;29.17;103190.75;3721522;37;21198;-45
2022/03/21 10:16:17;;;;;;;;;23.50;22.00;;;;;10.35;28.84;103159.59;3721564;38;21288;-45
2022/03/21 10:18:58;;;;;;;;;24.50;23.00;;;;;10.36;28.86;103169.44;3722290;38;21195;-47
2022/03/21 10:21:28;;;;;;;;;30.75;28.75;;;;;10.44;29.18;103161.53;3722324;38;21061;-46
2022/03/21 10:24:06;;;;;;;;;20.00;18.75;;;;;10.63;28.89;103172.69;3722186;37;21252;-47
2022/03/21 10:26:46;;;;;;;;;28.00;26.00;;;;;10.87;29.15;103168.03;3722407;38;21406;-46
2022/03/21 10:29:14;;;;;;;;;29.00;27.00;;;;;11.02;28.98;103168.63;3721921;37;21309;-47
2022/03/21 10:31:50;;;;;;;;;25.00;24.75;;;;;11.04;28.83;103163.09;3722461;38;21341;-46
2022/03/21 10:34:23;;;;;;;;;36.00;31.25;;;;;10.85;29.10;103144.75;3722383;37;21136;-47
2022/03/21 10:37:20;;;;;;;;;32.75;30.75;;;;;11.23;29.13;103164.22;3722309;37;21254;-47
2022/03/21 10:39:51;;;;;;;;;30.75;30.75;;;;;11.32;29.09;103138.19;3722412;38;21318;-48
2022/03/21 10:42:20;;;;;;;;;29.50;29.50;;;;;11.38;28.69;103139.53;3722393;37;21313;-47
2022/03/21 10:44:58;;;;;;;;;28.00;27.00;;;;;11.39;28.58;103134.00;3722191;37;21244;-47
2022/03/21 10:47:26;;;;;;;;;28.75;28.00;;;;;11.47;28.60;103145.03;3722021;37;20970;-47
2022/03/21 10:50:01;;;;;;;;;27.50;27.00;;;;;11.56;28.37;103114.47;3722128;38;21203;-47
2022/03/21 10:52:29;;;;;;;;;30.75;29.00;;;;;11.61;28.04;103119.50;3721551;38;21091;-47
2022/03/21 10:55:01;;;;;;;;;29.50;29.00;;;;;11.63;28.62;103135.66;3722228;38;21303;-47
2022/03/21 10:57:36;;;;;;;;;29.75;29.50;;;;;11.56;28.70;103127.16;3721268;38;21370;-46
2022/03/21 11:00:24;;;;;;;;;29.00;28.00;;;;;11.51;28.50;103097.69;3721550;37;21122;-46
2022/03/21 11:03:06;;;;;;;;;30.25;29.25;;;;;11.44;28.58;103093.78;3722297;38;21209;-46
2022/03/21 11:05:36;;;;;;;;;31.25;31.00;;;;;11.51;28.66;103105.84;3722293;38;21214;-47
2022/03/21 11:08:06;;;;;;;;;30.75;30.00;;;;;11.39;28.30;103096.03;3722200;38;21283;-47
2022/03/21 11:10:37;;;;;;;;;36.75;32.00;;;;;11.44;28.62;103080.22;3722489;38;21190;-46
2022/03/21 11:13:10;;;;;;;;;31.50;29.00;;;;;11.46;28.71;103069.25;3722320;38;21203;-45
2022/03/21 11:15:40;;;;;;;;;23.50;23.50;;;;;11.63;27.96;103051.56;3722478;38;21172;-46
2022/03/21 11:18:09;;;;;;;;;26.50;26.00;;;;;11.82;27.99;103060.75;3721738;37;21204;-46
2022/03/21 11:20:37;;;;;;;;;30.75;29.75;;;;;11.64;27.96;103045.16;3722618;38;21134;-46
2022/03/21 11:23:05;;;;;;;;;19.25;18.50;;;;;11.71;28.38;103047.22;3721164;38;21087;-45
2022/03/21 11:25:39;;;;;;;;;29.00;28.25;;;;;11.46;28.02;103032.12;3722426;38;21047;-47
2022/03/21 11:28:41;;;;;;;;;29.75;27.50;;;;;11.75;28.12;103042.38;3721809;38;21301;-46
2022/03/21 11:32:00;;;;;;;;;20.00;19.50;;;;;11.87;27.38;103031.38;3722474;37;21154;-46
2022/03/21 11:34:52;;;;;;;;;16.00;15.50;;;;;12.25;25.77;103011.75;3721729;38;21364;-46
2022/03/21 11:37:25;;;;;;;;;21.75;21.50;;;;;12.30;26.39;103022.19;3722497;37;21314;-46
2022/03/21 11:40:29;;;;;;;;;12.00;11.75;;;;;12.52;25.84;103005.72;3721526;38;21144;-45